Time;durP1;ratioP1;P1;durP2;ratioP2;P2;SDS_P1;SDS_P2;PMS_P1;PMS_P2;Temp;Humidity;BMP_temperature;BMP_pressure;BME280_temperature;BME280_humidity;BME280_pressure;Samples;Min_cycle;Max_cycle;Signal;HPM_P1;HPM_P2
2024/01/19 07:03:16;;;;;;;18.00;12.20;;;;;;;3.58;100.00;98613.97;112469;1240;23008;-46
2024/01/19 07:05:43;;;;;;;15.80;10.70;;;;;;;3.63;100.00;98616.05;112566;1249;22418;-51
2024/01/19 07:08:11;;;;;;;12.60;9.70;;;;;;;3.71;100.00;98616.56;112787;1249;22441;-51
2024/01/19 07:10:41;;;;;;;14.70;10.90;;;;;;;3.80;100.00;98616.23;112514;1249;22495;-52
2024/01/19 07:13:13;;;;;;;15.20;10.80;;;;;;;3.90;100.00;98620.71;112526;1249;22508;-52
2024/01/19 07:15:42;;;;;;;14.20;10.30;;;;;;;3.96;100.00;98621.58;112515;1249;23148;-46
2024/01/19 07:18:15;;;;;;;17.60;10.40;;;;;;;4.04;100.00;98623.65;111796;1249;22204;-46
2024/01/19 07:20:44;;;;;;;17.60;11.80;;;;;;;4.12;100.00;98613.81;112209;1244;22786;-46
2024/01/19 07:23:11;;;;;;;14.00;10.60;;;;;;;4.19;100.00;98601.02;112672;1249;22451;-46
2024/01/19 07:25:39;;;;;;;11.60;9.40;;;;;;;4.22;100.00;98601.71;112643;1246;23050;-45
2024/01/19 07:28:06;;;;;;;12.10;9.00;;;;;;;4.19;100.00;98615.87;112625;1249;22393;-45
2024/01/19 07:30:33;;;;;;;12.60;9.20;;;;;;;4.13;100.00;98625.90;112672;1249;23465;-45
2024/01/19 07:36:22;;;;;;;22.10;14.40;;;;;;;3.96;100.00;98639.52;112578;1249;22490;-45
2024/01/19 07:38:49;;;;;;;19.80;14.40;;;;;;;3.89;100.00;98640.20;112712;1249;22367;-46
2024/01/19 07:41:16;;;;;;;28.90;17.70;;;;;;;3.84;100.00;98631.93;112774;1249;23236;-47
2024/01/19 07:43:43;;;;;;;27.50;17.30;;;;;;;3.82;100.00;98643.30;112744;1249;22404;-46
2024/01/19 07:46:16;;;;;;;25.40;16.80;;;;;;;3.82;100.00;98649.00;112095;1249;22591;-46
2024/01/19 07:48:43;;;;;;;27.70;18.30;;;;;;;3.80;100.00;98651.23;112762;1249;22362;-46
2024/01/19 07:51:11;;;;;;;27.90;18.50;;;;;;;3.80;100.00;98642.79;112789;1249;22366;-46
2024/01/19 07:53:38;;;;;;;28.00;17.40;;;;;;;3.85;100.00;98654.19;112879;1246;23114;-46
2024/01/19 07:56:05;;;;;;;27.50;17.50;;;;;;;3.92;100.00;98663.33;112909;1247;22422;-46
2024/01/19 07:58:32;;;;;;;23.10;15.50;;;;;;;3.98;100.00;98661.09;112841;1249;22796;-45
2024/01/19 08:00:59;;;;;;;21.60;13.60;;;;;;;4.04;100.00;98662.48;112872;1249;22382;-45
2024/01/19 08:03:25;;;;;;;26.60;13.70;;;;;;;4.07;100.00;98660.08;111668;1249;25424;-52
2024/01/19 08:05:53;;;;;;;18.20;13.10;;;;;;;4.11;100.00;98660.56;111926;1249;23257;-52
2024/01/19 08:08:20;;;;;;;18.30;13.10;;;;;;;4.10;100.00;98665.91;112653;1249;22414;-51
2024/01/19 08:10:47;;;;;;;20.10;15.10;;;;;;;4.10;100.00;98675.41;112447;1249;22929;-45
2024/01/19 08:13:16;;;;;;;25.20;18.00;;;;;;;4.12;100.00;98677.83;112219;1249;24364;-49
2024/01/19 08:15:45;;;;;;;20.00;13.40;;;;;;;4.12;100.00;98678.35;111219;1249;22521;-52
2024/01/19 08:18:13;;;;;;;20.60;14.40;;;;;;;4.10;100.00;98680.75;111623;1249;22491;-52
2024/01/19 08:20:47;;;;;;;15.40;11.90;;;;;;;4.10;100.00;98683.17;111692;1249;22607;-51
2024/01/19 08:23:24;;;;;;;13.50;10.30;;;;;;;4.10;100.00;98683.52;111694;1249;22488;-48
2024/01/19 08:25:59;;;;;;;14.10;10.20;;;;;;;4.12;100.00;98688.36;111463;1249;23088;-51
2024/01/19 08:28:30;;;;;;;13.20;9.30;;;;;;;4.12;100.00;98689.23;111515;1249;25627;-50
2024/01/19 08:31:02;;;;;;;8.80;7.90;;;;;;;4.13;100.00;98691.48;110733;1237;22412;-47
2024/01/19 08:33:30;;;;;;;13.30;10.30;;;;;;;4.13;100.00;98695.27;110519;1249;23835;-50
2024/01/19 08:36:01;;;;;;;15.20;9.80;;;;;;;4.13;100.00;98696.13;112090;1249;22450;-51
2024/01/19 08:38:30;;;;;;;10.00;7.80;;;;;;;4.12;100.00;98696.82;112518;1249;22949;-51
2024/01/19 08:41:01;;;;;;;9.20;8.00;;;;;;;4.11;100.00;98696.30;112400;1249;22611;-46
2024/01/19 08:43:32;;;;;;;9.00;6.90;;;;;;;4.11;100.00;98698.88;111609;1249;22545;-50
2024/01/19 08:46:04;;;;;;;7.40;6.50;;;;;;;4.11;100.00;98701.30;111737;1249;22496;-50
2024/01/19 08:48:45;;;;;;;9.30;7.30;;;;;;;4.14;100.00;98703.20;111329;1249;22547;-46
2024/01/19 08:51:28;;;;;;;10.10;6.90;;;;;;;4.15;100.00;98704.57;112141;1242;22407;-52
2024/01/19 08:53:58;;;;;;;;;;;;;;;4.18;100.00;98705.61;111785;1249;24592;-52
2024/01/19 08:56:27;;;;;;;7.40;5.70;;;;;;;4.19;100.00;98707.52;111068;1249;26450;-45
2024/01/19 08:58:54;;;;;;;6.90;5.90;;;;;;;4.19;100.00;98706.48;112130;1249;22519;-51
2024/01/19 09:01:21;;;;;;;6.20;5.10;;;;;;;4.18;100.00;98708.55;112297;1241;24247;-52
2024/01/19 09:03:48;;;;;;;6.90;6.10;;;;;;;4.17;100.00;98709.40;111993;1249;22507;-51
2024/01/19 09:06:18;;;;;;;10.20;5.90;;;;;;;4.20;100.00;98709.41;112127;1249;22537;-46
2024/01/19 09:08:50;;;;;;;8.30;6.30;;;;;;;4.25;100.00;98710.11;111845;1249;22406;-52
2024/01/19 09:11:17;;;;;;;7.80;6.80;;;;;;;4.32;100.00;98712.00;112326;1249;23267;-52
2024/01/19 09:13:44;;;;;;;9.70;7.80;;;;;;;4.37;100.00;98715.45;112479;1249;22396;-52
2024/01/19 09:16:17;;;;;;;13.30;9.10;;;;;;;4.40;100.00;98718.90;112509;1249;22578;-52
2024/01/19 09:18:44;;;;;;;16.00;10.10;;;;;;;4.43;100.00;98722.19;111773;1249;22414;-51
2024/01/19 09:21:16;;;;;;;16.10;11.40;;;;;;;4.42;100.00;98721.67;112292;1249;23065;-51
2024/01/19 09:23:50;;;;;;;13.40;9.90;;;;;;;4.44;100.00;98725.80;112647;1249;22402;-46
2024/01/19 09:26:32;;;;;;;17.20;11.40;;;;;;;4.48;100.00;98726.51;111608;1249;22472;-46
2024/01/19 09:29:49;;;;;;;17.00;11.50;;;;;;;4.49;100.00;98732.72;112371;1249;22513;-51
2024/01/19 09:32:21;;;;;;;16.10;11.30;;;;;;;4.50;100.00;98737.02;112708;1249;23121;-46
2024/01/19 09:35:04;;;;;;;15.60;10.60;;;;;;;4.52;100.00;98738.23;112655;1249;22458;-46
2024/01/19 09:37:38;;;;;;;13.00;9.50;;;;;;;4.58;100.00;98743.41;112855;1249;22248;-46
2024/01/19 09:40:11;;;;;;;15.90;10.30;;;;;;;4.61;100.00;98752.57;112845;1249;22329;-45
2024/01/19 09:42:39;;;;;;;11.40;8.50;;;;;;;4.58;100.00;98756.20;112593;1246;23043;-45
2024/01/19 09:45:07;;;;;;;13.90;9.20;;;;;;;4.55;100.00;98759.48;111520;1249;22579;-46
2024/01/19 09:47:47;;;;;;;15.00;9.70;;;;;;;4.50;100.00;98763.80;112681;1249;23108;-51
2024/01/19 09:50:20;;;;;;;12.90;8.80;;;;;;;4.45;100.00;98771.05;112649;1249;22302;-52
2024/01/19 09:53:00;;;;;;;12.90;9.10;;;;;;;4.42;100.00;98783.65;112873;1249;22394;-51
2024/01/19 09:55:58;;;;;;;13.10;10.10;;;;;;;4.40;100.00;98791.74;112585;1249;23267;-45
2024/01/19 10:01:53;;;;;;;15.70;10.50;;;;;;;4.38;100.00;98792.11;112787;1249;22989;-46
2024/01/19 10:08:09;;;;;;;13.50;10.30;;;;;;;4.34;100.00;98793.98;112305;1249;22420;-51
2024/01/19 10:15:10;;;;;;;17.80;11.80;;;;;;;4.39;100.00;98801.77;112400;1249;23345;-52
2024/01/19 10:18:27;;;;;;;17.60;11.90;;;;;;;4.41;100.00;98796.95;112733;1249;22854;-46
2024/01/19 10:21:05;;;;;;;16.00;11.60;;;;;;;4.43;100.00;98791.77;112022;1249;23311;-51
2024/01/19 10:23:56;;;;;;;16.70;12.00;;;;;;;4.45;100.00;98796.58;112571;1249;23210;-45
2024/01/19 10:27:30;;;;;;;16.50;11.20;;;;;;;4.47;100.00;98800.92;112730;1249;22287;-52
2024/01/19 10:30:14;;;;;;;18.50;11.30;;;;;;;4.47;100.00;98804.73;112420;1249;22231;-51
2024/01/19 10:32:43;;;;;;;16.80;10.30;;;;;;;4.47;100.00;98807.84;112493;1249;22511;-45
2024/01/19 10:35:12;;;;;;;17.60;11.00;;;;;;;4.47;100.00;98805.92;112382;1249;22982;-45
2024/01/19 10:37:39;;;;;;;26.60;11.80;;;;;;;4.44;100.00;98806.95;112822;1249;22382;-46
2024/01/19 10:40:33;;;;;;;14.70;10.40;;;;;;;4.41;100.00;98798.85;112669;1249;22465;-46
2024/01/19 10:43:00;;;;;;;17.10;10.90;;;;;;;4.38;100.00;98798.14;112649;1249;22267;-56
2024/01/19 10:45:31;;;;;;;18.10;10.10;;;;;;;4.36;100.00;98799.52;112783;1249;22374;-51
2024/01/19 10:48:03;;;;;;;24.90;13.30;;;;;;;4.35;100.00;98810.05;111621;1249;22581;-50
2024/01/19 10:50:30;;;;;;;32.00;17.40;;;;;;;4.33;100.00;98814.88;112855;1249;22414;-50
2024/01/19 10:52:59;;;;;;;30.50;16.00;;;;;;;4.30;100.00;98819.20;112829;1249;22448;-45
2024/01/19 10:55:27;;;;;;;30.50;15.90;;;;;;;4.29;100.00;98818.85;112566;1249;23114;-45
2024/01/19 10:58:02;;;;;;;31.20;16.10;;;;;;;4.27;100.00;98820.58;112787;1249;22341;-51
2024/01/19 11:00:31;;;;;;;37.50;18.20;;;;;;;4.25;100.00;98827.83;112353;1249;22430;-51
2024/01/19 11:03:02;;;;;;;36.00;18.90;;;;;;;4.24;100.00;98832.98;112027;1249;25462;-50
2024/01/19 11:05:32;;;;;;;41.10;22.30;;;;;;;4.22;100.00;98840.58;112784;1249;23225;-45
2024/01/19 11:08:06;;;;;;;47.80;23.70;;;;;;;4.20;100.00;98848.17;112277;1249;22414;-45
2024/01/19 11:10:35;;;;;;;52.00;25.30;;;;;;;4.19;100.00;98849.39;112644;1249;23080;-45
2024/01/19 11:13:04;;;;;;;48.70;24.20;;;;;;;4.16;100.00;98843.84;112106;1249;22402;-45
2024/01/19 11:15:34;;;;;;;51.00;25.60;;;;;;;4.11;100.00;98838.14;111268;1249;22614;-46
2024/01/19 11:18:05;;;;;;;59.60;28.00;;;;;;;4.07;100.00;98836.76;112605;1249;22477;-51
2024/01/19 11:20:33;;;;;;;61.20;28.80;;;;;;;4.03;100.00;98831.73;112485;1249;22486;-51
2024/01/19 11:23:01;;;;;;;59.50;26.50;;;;;;;3.99;100.00;98826.36;112610;1249;22281;-44
2024/01/19 11:26:04;;;;;;;66.20;29.60;;;;;;;3.98;100.00;98826.54;112653;1249;22374;-45
2024/01/19 11:28:45;;;;;;;74.60;31.80;;;;;;;3.94;100.00;98838.27;111866;1249;22567;-46
2024/01/19 11:31:29;;;;;;;74.50;32.90;;;;;;;3.90;100.00;98856.52;112329;1241;22331;-52
2024/01/19 11:33:58;;;;;;;88.90;36.00;;;;;;;3.87;100.00;98852.89;112470;1249;23160;-51
2024/01/19 11:36:38;;;;;;;103.90;39.80;;;;;;;3.84;100.00;98852.03;112440;1248;22398;-51
2024/01/19 11:39:08;;;;;;;103.60;38.00;;;;;;;3.82;100.00;98852.70;112002;1249;23249;-50
2024/01/19 11:41:37;;;;;;;101.40;37.10;;;;;;;3.80;100.00;98865.27;112117;1249;23542;-45
2024/01/19 11:44:07;;;;;;;99.60;38.50;;;;;;;3.79;100.00;98877.88;112348;1249;23347;-48
2024/01/19 11:46:46;;;;;;;83.90;35.50;;;;;;;3.77;100.00;98880.80;111830;1249;24169;-51
2024/01/19 11:49:32;;;;;;;88.60;38.00;;;;;;;3.75;100.00;98888.71;112447;1249;22462;-45
2024/01/19 11:52:03;;;;;;;90.10;35.60;;;;;;;3.72;100.00;98892.84;112458;1249;22900;-50
2024/01/19 11:54:33;;;;;;;72.50;30.60;;;;;;;3.71;100.00;98900.08;112647;1249;22271;-50
2024/01/19 11:57:22;;;;;;;61.50;29.10;;;;;;;3.69;100.00;98898.00;111602;1249;22506;-45
2024/01/19 11:59:49;;;;;;;35.90;20.50;;;;;;;3.66;100.00;98901.43;112731;1249;23085;-43
2024/01/19 12:02:33;;;;;;;23.50;15.50;;;;;;;3.62;100.00;98905.03;112549;1249;22426;-51
2024/01/19 12:05:03;;;;;;;16.30;11.50;;;;;;;3.57;100.00;98904.66;112259;1249;24197;-47
2024/01/19 12:07:34;;;;;;;16.00;10.50;;;;;;;3.54;100.00;98908.95;112501;1249;22366;-51
2024/01/19 12:10:16;;;;;;;17.20;11.60;;;;;;;3.51;100.00;98923.23;112161;1249;23018;-52
2024/01/19 12:12:43;;;;;;;19.50;13.50;;;;;;;3.46;100.00;98925.96;112570;1249;22358;-51
2024/01/19 12:15:16;;;;;;;16.40;12.10;;;;;;;3.44;100.00;98926.65;111912;1249;23283;-52
2024/01/19 12:17:53;;;;;;;16.70;11.50;;;;;;;3.41;100.00;98924.90;112060;1249;22531;-50
2024/01/19 12:20:25;;;;;;;18.30;13.20;;;;;;;3.38;100.00;98927.30;112006;1249;22425;-45
2024/01/19 12:22:55;;;;;;;20.30;14.80;;;;;;;3.35;100.00;98928.30;112067;1249;22494;-51
2024/01/19 12:25:26;;;;;;;22.10;14.10;;;;;;;3.31;100.00;98931.21;112139;1249;22423;-51
2024/01/19 12:28:04;;;;;;;18.80;13.70;;;;;;;3.30;100.00;98937.73;112724;1249;22188;-52
2024/01/19 12:30:32;;;;;;;19.80;13.10;;;;;;;3.27;100.00;98945.83;112763;1249;22483;-46
2024/01/19 12:33:21;;;;;;;21.30;14.00;;;;;;;3.25;100.00;98952.18;112696;1249;22445;-46
2024/01/19 12:35:48;;;;;;;23.90;15.40;;;;;;;3.22;100.00;98957.67;112835;1249;22463;-50
2024/01/19 12:38:15;;;;;;;23.40;15.20;;;;;;;3.18;100.00;98958.85;112871;1249;22714;-53
2024/01/19 12:40:43;;;;;;;21.50;13.90;;;;;;;3.13;100.00;98960.88;112853;1249;22356;-47
2024/01/19 12:43:10;;;;;;;15.60;11.90;;;;;;;3.08;100.00;98971.00;112791;1249;22902;-44
2024/01/19 12:45:37;;;;;;;15.10;11.20;;;;;;;3.03;100.00;98977.33;112889;1249;22440;-47
2024/01/19 12:48:04;;;;;;;16.00;10.80;;;;;;;2.98;100.00;98982.27;112891;1249;22364;-50
2024/01/19 12:50:44;;;;;;;14.60;9.00;;;;;;;2.93;100.00;98991.17;112839;1249;22806;-51
2024/01/19 12:53:14;;;;;;;13.10;9.40;;;;;;;2.89;100.00;98998.71;112826;1249;22379;-52
2024/01/19 12:55:40;;;;;;;9.90;7.70;;;;;;;2.85;100.00;99000.75;112809;1249;22857;-52
2024/01/19 12:58:08;;;;;;;12.00;9.00;;;;;;;2.80;100.00;98998.29;112666;1249;22481;-53
2024/01/19 13:00:35;;;;;;;11.30;7.50;;;;;;;2.75;100.00;99001.67;112771;1249;22366;-53
2024/01/19 13:03:03;;;;;;;9.20;7.10;;;;;;;2.71;100.00;99007.83;112753;1249;22375;-53
2024/01/19 13:05:31;;;;;;;8.50;6.80;;;;;;;2.68;100.00;99012.96;112845;1249;22388;-52
2024/01/19 13:08:01;;;;;;;7.70;5.90;;;;;;;2.65;100.00;99022.90;112884;1249;22400;-52
2024/01/19 13:10:29;;;;;;;9.10;6.60;;;;;;;2.62;100.00;99030.81;112863;1249;22457;-52
2024/01/19 13:13:06;;;;;;;7.00;5.70;;;;;;;2.61;100.00;99041.65;112752;1249;23145;-52
2024/01/19 13:15:33;;;;;;;10.90;6.10;;;;;;;2.61;100.00;99046.29;112850;1249;22324;-52
2024/01/19 13:18:07;;;;;;;7.60;5.70;;;;;;;2.60;100.00;99046.44;112789;1249;23200;-52
2024/01/19 13:20:34;;;;;;;11.70;7.90;;;;;;;2.58;100.00;99053.64;112862;1249;22343;-52
2024/01/19 13:23:01;;;;;;;9.40;6.80;;;;;;;2.56;100.00;99053.45;112689;1249;22282;-46
2024/01/19 13:25:28;;;;;;;18.40;11.20;;;;;;;2.53;100.00;99055.30;112859;1249;23168;-46
2024/01/19 13:27:58;;;;;;;15.10;9.10;;;;;;;2.51;100.00;99049.61;111706;1249;22491;-46
2024/01/19 13:30:28;;;;;;;41.20;17.70;;;;;;;2.48;100.00;99055.41;110454;1249;24168;-46
2024/01/19 13:33:00;;;;;;;35.90;16.20;;;;;;;2.44;100.00;99055.89;110908;1249;22522;-47
2024/01/19 13:35:29;;;;;;;48.10;16.30;;;;;;;2.42;100.00;99063.25;110433;1249;22518;-46
2024/01/19 13:37:56;;;;;;;47.50;17.70;;;;;;;2.39;100.00;99068.38;110319;1249;22636;-48
2024/01/19 13:40:23;;;;;;;136.80;42.10;;;;;;;2.35;100.00;99073.32;110275;1249;25330;-49
2024/01/19 13:42:51;;;;;;;62.80;24.70;;;;;;;2.32;100.00;99079.81;110532;1249;22511;-46
